createdAt,value
2022-12-17T00:01:42.192Z,-7.70
2022-12-17T00:04:29.060Z,-7.70
2022-12-17T00:07:14.547Z,-7.70
2022-12-17T00:10:00.057Z,-7.60
2022-12-17T00:12:45.487Z,-7.60
2022-12-17T00:15:31.129Z,-7.50
2022-12-17T00:18:21.613Z,-7.50
2022-12-17T00:21:12.765Z,-7.40
2022-12-17T00:23:58.380Z,-7.40
2022-12-17T00:26:44.378Z,-7.30
2022-12-17T00:29:29.942Z,-7.30
2022-12-17T00:32:15.495Z,-7.20
2022-12-17T00:35:01.025Z,-7.10
2022-12-17T00:37:48.224Z,-7.00
2022-12-17T00:40:35.080Z,-7.00
2022-12-17T00:43:21.975Z,-6.90
2022-12-17T00:46:08.163Z,-6.90
2022-12-17T00:48:54.023Z,-6.90
2022-12-17T00:51:50.881Z,-6.90
2022-12-17T00:54:37.627Z,-6.90
2022-12-17T00:57:23.014Z,-6.90
2022-12-17T01:00:08.430Z,-6.90
2022-12-17T01:02:55.028Z,-6.90
2022-12-17T01:05:42.232Z,-6.90
2022-12-17T01:08:28.880Z,-6.90
2022-12-17T01:11:19.101Z,-6.90
2022-12-17T01:14:05.561Z,-7.00
2022-12-17T01:17:05.642Z,-7.00
2022-12-17T01:19:51.393Z,-7.00
2022-12-17T01:22:37.373Z,-7.10
2022-12-17T01:25:24.017Z,-7.10
2022-12-17T01:28:10.728Z,-7.20
2022-12-17T01:30:56.787Z,-7.20
2022-12-17T01:33:42.901Z,-7.30
2022-12-17T01:36:28.669Z,-7.40
2022-12-17T01:39:14.159Z,-7.40
2022-12-17T01:41:59.544Z,-7.50
2022-12-17T01:45:08.530Z,-7.50
2022-12-17T01:47:58.204Z,-7.50
2022-12-17T01:51:01.624Z,-7.60
2022-12-17T01:53:51.000Z,-7.60
2022-12-17T01:56:37.226Z,-7.70
2022-12-17T01:59:24.148Z,-7.70
2022-12-17T02:02:10.938Z,-7.80
2022-12-17T02:04:57.903Z,-7.80
2022-12-17T02:07:56.393Z,-7.90
2022-12-17T02:10:45.031Z,-7.90
2022-12-17T02:13:31.368Z,-8.00
2022-12-17T02:16:21.443Z,-8.00
2022-12-17T02:19:14.547Z,-8.00
2022-12-17T02:22:01.511Z,-8.10
2022-12-17T02:24:53.799Z,-8.10
2022-12-17T02:27:41.990Z,-8.10
2022-12-17T02:30:29.262Z,-8.10
2022-12-17T02:33:14.651Z,-8.20
2022-12-17T02:36:02.848Z,-8.20
2022-12-17T02:38:50.437Z,-8.30
2022-12-17T02:41:39.923Z,-8.30
2022-12-17T02:44:28.591Z,-8.40
2022-12-17T02:47:19.127Z,-8.40
2022-12-17T02:50:04.715Z,-8.40
2022-12-17T02:52:52.494Z,-8.50
2022-12-17T02:55:37.802Z,-8.50
2022-12-17T02:58:23.392Z,-8.50
2022-12-17T03:01:10.143Z,-8.50
2022-12-17T03:03:55.854Z,-8.50
2022-12-17T03:06:41.719Z,-8.50
2022-12-17T03:09:27.003Z,-8.50
2022-12-17T03:12:12.342Z,-8.50
2022-12-17T03:14:57.813Z,-8.60
2022-12-17T03:17:44.819Z,-8.60
2022-12-17T03:20:30.390Z,-8.60
2022-12-17T03:23:21.385Z,-8.70
2022-12-17T03:26:06.806Z,-8.70
2022-12-17T03:28:52.343Z,-8.80
2022-12-17T03:31:37.671Z,-8.80
2022-12-17T03:34:24.421Z,-8.80
2022-12-17T03:37:09.872Z,-8.90
2022-12-17T03:39:55.359Z,-8.90
2022-12-17T03:42:41.023Z,-9.00
2022-12-17T03:45:26.942Z,-9.00
2022-12-17T03:48:23.036Z,-9.10
2022-12-17T03:51:10.581Z,-9.10
2022-12-17T03:53:56.058Z,-9.10
2022-12-17T03:56:41.681Z,-9.20
2022-12-17T03:59:27.141Z,-9.20
2022-12-17T04:02:13.028Z,-9.20
2022-12-17T04:04:58.431Z,-9.20
2022-12-17T04:07:45.309Z,-9.20
2022-12-17T04:10:31.542Z,-9.20
2022-12-17T04:13:17.492Z,-9.20
2022-12-17T04:16:02.890Z,-9.20
2022-12-17T04:18:48.724Z,-9.20
2022-12-17T04:21:34.302Z,-9.30
2022-12-17T04:24:21.029Z,-9.30
2022-12-17T04:27:06.485Z,-9.30
2022-12-17T04:29:52.089Z,-9.30
2022-12-17T04:32:37.555Z,-9.30
2022-12-17T04:35:23.655Z,-9.20
2022-12-17T04:38:09.375Z,-9.30
2022-12-17T04:40:57.643Z,-9.30
2022-12-17T04:43:43.164Z,-9.20
2022-12-17T04:46:28.608Z,-9.20
2022-12-17T04:49:14.591Z,-9.10
2022-12-17T04:52:00.117Z,-9.10
2022-12-17T04:54:45.729Z,-9.10
2022-12-17T04:57:32.623Z,-9.10
2022-12-17T05:00:18.108Z,-9.10
2022-12-17T05:03:03.813Z,-9.20
2022-12-17T05:05:49.125Z,-9.20
2022-12-17T05:08:39.648Z,-9.20
2022-12-17T05:11:26.722Z,-9.20
2022-12-17T05:14:13.650Z,-9.30
2022-12-17T05:16:59.223Z,-9.30
2022-12-17T05:19:44.847Z,-9.30
2022-12-17T05:22:30.523Z,-9.40
2022-12-17T05:25:16.263Z,-9.40
2022-12-17T05:28:01.701Z,-9.40
2022-12-17T05:30:48.638Z,-9.40
2022-12-17T05:33:34.393Z,-9.40
2022-12-17T05:36:22.759Z,-9.50
2022-12-17T05:39:08.758Z,-9.50
2022-12-17T05:41:54.057Z,-9.50
2022-12-17T05:44:39.513Z,-9.50
2022-12-17T05:47:26.495Z,-9.50
2022-12-17T05:50:17.743Z,-9.60
2022-12-17T05:53:03.487Z,-9.60
2022-12-17T05:55:48.837Z,-9.70
2022-12-17T05:58:34.445Z,-9.70
2022-12-17T06:01:22.411Z,-9.70
2022-12-17T06:04:09.416Z,-9.80
2022-12-17T06:06:54.781Z,-9.80
2022-12-17T06:09:40.251Z,-9.80
2022-12-17T06:12:26.264Z,-9.80
2022-12-17T06:15:11.990Z,-9.80
2022-12-17T06:17:57.308Z,-9.90
2022-12-17T06:20:53.702Z,-9.90
2022-12-17T06:23:39.602Z,-9.90
2022-12-17T06:26:25.201Z,-9.90
2022-12-17T06:29:10.765Z,-9.90
2022-12-17T06:31:52.707Z,-9.90
2022-12-17T06:34:38.438Z,-10.00
2022-12-17T06:37:25.113Z,-10.00
2022-12-17T06:40:10.471Z,-10.00
2022-12-17T06:42:55.960Z,-9.90
2022-12-17T06:45:41.504Z,-9.90
2022-12-17T06:48:27.634Z,-9.80
2022-12-17T06:51:13.597Z,-9.80
2022-12-17T06:54:06.361Z,-9.70
2022-12-17T06:56:52.116Z,-9.70
2022-12-17T06:59:42.666Z,-9.60
2022-12-17T07:02:29.234Z,-9.60
2022-12-17T07:05:14.795Z,-9.50
2022-12-17T07:08:00.242Z,-9.40
2022-12-17T07:10:55.442Z,-9.30
2022-12-17T07:13:42.496Z,-9.20
2022-12-17T07:16:28.113Z,-9.10
2022-12-17T07:19:13.892Z,-9.10
2022-12-17T07:21:59.336Z,-9.00
2022-12-17T07:24:44.664Z,-8.90
2022-12-17T07:27:31.543Z,-8.80
2022-12-17T07:30:16.894Z,-8.70
2022-12-17T07:33:02.588Z,-8.60
2022-12-17T07:35:48.095Z,-8.50
2022-12-17T07:38:30.038Z,-8.40
2022-12-17T07:41:17.333Z,-8.40
2022-12-17T07:44:04.362Z,-8.30
2022-12-17T07:46:49.943Z,-8.30
2022-12-17T07:49:35.454Z,-8.20
2022-12-17T07:52:21.054Z,-8.10
2022-12-17T07:55:05.564Z,-8.00
2022-12-17T07:57:51.148Z,-7.90
2022-12-17T08:00:38.265Z,-7.80
2022-12-17T08:03:23.915Z,-7.70
2022-12-17T08:06:09.526Z,-7.60
2022-12-17T08:08:55.026Z,-7.50
2022-12-17T08:11:40.870Z,-7.40
2022-12-17T08:14:26.602Z,-7.30
2022-12-17T08:17:13.551Z,-7.20
2022-12-17T08:19:59.150Z,-7.20
2022-12-17T08:22:44.606Z,-7.10
2022-12-17T08:25:30.272Z,-7.00
2022-12-17T08:28:49.179Z,-6.90
2022-12-17T08:31:24.348Z,-6.80
2022-12-17T08:34:11.432Z,-6.60
2022-12-17T08:36:56.535Z,-6.60
2022-12-17T08:39:42.132Z,-6.50
2022-12-17T08:42:27.735Z,-6.40
2022-12-17T08:45:13.436Z,-6.30
2022-12-17T08:48:03.587Z,-6.20
2022-12-17T08:50:51.062Z,-6.10
2022-12-17T08:53:37.327Z,-6.00
2022-12-17T08:56:23.822Z,-5.90
2022-12-17T08:59:09.265Z,-5.90
2022-12-17T09:01:54.846Z,-5.80
2022-12-17T09:04:40.709Z,-5.70
2022-12-17T09:07:27.474Z,-5.30
2022-12-17T09:10:12.975Z,-4.80
2022-12-17T09:13:04.175Z,-4.30
2022-12-17T09:15:51.628Z,-3.80
2022-12-17T09:18:37.932Z,-3.40
2022-12-17T09:21:24.304Z,-3.10
2022-12-17T09:24:11.325Z,-2.90
2022-12-17T09:26:57.129Z,-2.60
2022-12-17T09:29:43.024Z,-2.40
2022-12-17T09:32:28.548Z,-2.10
2022-12-17T09:35:14.239Z,-1.90
2022-12-17T09:37:56.155Z,-1.90
2022-12-17T09:40:43.869Z,-2.00
2022-12-17T09:43:39.608Z,-1.90
2022-12-17T09:46:33.505Z,-1.80
2022-12-17T09:49:21.626Z,-1.50
2022-12-17T09:52:07.130Z,-1.30
2022-12-17T09:55:01.405Z,-1.00
2022-12-17T09:57:51.946Z,-0.80
2022-12-17T10:00:40.187Z,-1.10
2022-12-17T10:03:32.983Z,-1.10
2022-12-17T10:06:35.918Z,-1.30
2022-12-17T10:09:30.146Z,-1.40
2022-12-17T10:12:18.755Z,-1.20
2022-12-17T10:15:05.637Z,-1.10
2022-12-17T10:17:51.027Z,-1.40
2022-12-17T10:20:42.043Z,-1.70
2022-12-17T10:23:27.440Z,-2.10
2022-12-17T10:26:14.461Z,-2.00
2022-12-17T10:29:00.421Z,-2.00
2022-12-17T10:31:49.906Z,-2.10
2022-12-17T10:34:38.100Z,-2.30
2022-12-17T10:37:24.932Z,-2.50
2022-12-17T10:40:15.344Z,-2.70
2022-12-17T10:43:02.936Z,-2.90
2022-12-17T10:45:50.456Z,-3.00
2022-12-17T10:48:39.527Z,-3.10
2022-12-17T10:51:36.232Z,-3.20
2022-12-17T10:54:28.032Z,-3.10
2022-12-17T10:57:18.662Z,-3.10
2022-12-17T11:00:05.539Z,-3.10
2022-12-17T11:02:51.779Z,-3.10
2022-12-17T11:05:45.583Z,-3.00
2022-12-17T11:08:34.185Z,-2.90
2022-12-17T11:11:26.076Z,-3.00
2022-12-17T11:14:12.698Z,-3.00
2022-12-17T11:17:03.511Z,-3.00
2022-12-17T11:19:56.944Z,-3.00
2022-12-17T11:22:50.984Z,-3.00
2022-12-17T11:25:50.973Z,-3.00
2022-12-17T11:28:40.982Z,-2.90
2022-12-17T11:31:54.052Z,-3.00
2022-12-17T11:34:47.692Z,-3.00
2022-12-17T11:37:38.961Z,-2.90
2022-12-17T11:40:39.469Z,-2.90
2022-12-17T11:43:33.971Z,-2.90
2022-12-17T11:46:32.247Z,-2.80
2022-12-17T11:49:25.135Z,-2.80
2022-12-17T11:52:18.180Z,-2.70
2022-12-17T11:55:12.998Z,-2.70
2022-12-17T11:58:08.601Z,-2.60
2022-12-17T12:01:06.005Z,-2.60
2022-12-17T12:04:04.964Z,-2.50
2022-12-17T12:06:58.501Z,-2.40
2022-12-17T12:09:49.113Z,-2.30
2022-12-17T12:12:52.713Z,-2.20
2022-12-17T12:15:45.317Z,-2.20
2022-12-17T12:18:37.658Z,-2.20
2022-12-17T12:21:35.083Z,-2.20
2022-12-17T12:24:36.048Z,-2.10
2022-12-17T12:27:29.624Z,-2.10
2022-12-17T12:30:21.959Z,-2.00
2022-12-17T12:33:17.528Z,-2.00
2022-12-17T12:36:11.100Z,-1.90
2022-12-17T12:39:01.902Z,-1.90
2022-12-17T12:41:57.569Z,-1.90
2022-12-17T12:44:50.859Z,-1.90
2022-12-17T12:47:42.467Z,-1.90
2022-12-17T12:50:37.030Z,-1.90
2022-12-17T12:53:26.464Z,-1.90
2022-12-17T12:56:14.265Z,-1.90
2022-12-17T12:59:00.087Z,-1.90
2022-12-17T13:01:55.324Z,-1.70
2022-12-17T13:04:50.226Z,-1.50
2022-12-17T13:07:28.442Z,-1.30
2022-12-17T13:09:59.234Z,-1.10
2022-12-17T13:12:34.581Z,-0.80
2022-12-17T13:15:22.511Z,-0.20
2022-12-17T13:18:00.720Z,0.60
2022-12-17T13:20:32.077Z,1.40
2022-12-17T13:23:27.765Z,2.30
2022-12-17T13:26:17.137Z,3.10
2022-12-17T13:28:51.403Z,3.80
2022-12-17T13:31:25.169Z,4.40
2022-12-17T13:34:03.672Z,4.80
2022-12-17T13:36:38.744Z,5.10
2022-12-17T13:39:29.409Z,5.50
2022-12-17T13:41:59.855Z,5.90
2022-12-17T13:44:33.259Z,6.10
2022-12-17T13:47:01.473Z,6.30
2022-12-17T13:49:31.247Z,6.40
2022-12-17T13:52:11.132Z,6.60
2022-12-17T13:54:41.471Z,6.80
2022-12-17T13:57:10.536Z,7.00
2022-12-17T13:59:39.567Z,7.20
2022-12-17T14:02:25.667Z,7.40
2022-12-17T14:04:54.707Z,7.60
2022-12-17T14:07:23.645Z,7.30
2022-12-17T14:09:54.827Z,7.30
2022-12-17T14:12:25.673Z,7.20
2022-12-17T14:14:57.198Z,7.00
2022-12-17T14:17:27.277Z,6.30
2022-12-17T14:20:00.544Z,5.40
2022-12-17T14:22:35.762Z,5.20
2022-12-17T14:25:12.706Z,4.90
2022-12-17T14:27:42.581Z,4.30
2022-12-17T14:30:23.174Z,3.90
2022-12-17T14:32:52.159Z,3.10
2022-12-17T14:35:29.278Z,2.50
2022-12-17T14:37:58.107Z,2.00
2022-12-17T14:40:28.322Z,1.40
2022-12-17T14:43:01.201Z,1.00
2022-12-17T14:45:30.410Z,0.70
2022-12-17T14:48:00.225Z,0.30
2022-12-17T14:50:34.119Z,0.10
2022-12-17T14:53:03.911Z,0.10
2022-12-17T14:55:39.435Z,0.00
2022-12-17T14:58:17.945Z,-0.20
2022-12-17T15:00:48.662Z,-0.50
2022-12-17T15:03:22.696Z,-0.70
2022-12-17T15:05:54.603Z,-1.00
2022-12-17T15:08:23.245Z,-1.20
2022-12-17T15:10:52.886Z,-1.40
2022-12-17T15:13:21.087Z,-1.70
2022-12-17T15:15:49.131Z,-1.90
2022-12-17T15:18:17.472Z,-2.00
2022-12-17T15:20:46.227Z,-2.20
2022-12-17T15:23:18.177Z,-2.30
2022-12-17T15:25:47.445Z,-2.50
2022-12-17T15:28:18.172Z,-2.60
2022-12-17T15:30:47.393Z,-2.70
2022-12-17T15:33:16.269Z,-2.90
2022-12-17T15:35:44.732Z,-3.00
2022-12-17T15:38:14.100Z,-3.10
2022-12-17T15:40:42.459Z,-3.30
2022-12-17T15:43:13.827Z,-3.40
2022-12-17T15:45:45.704Z,-3.50
2022-12-17T15:48:16.146Z,-3.70
2022-12-17T15:50:44.793Z,-3.70
2022-12-17T15:53:14.878Z,-3.80
2022-12-17T15:55:43.269Z,-4.00
2022-12-17T15:58:12.116Z,-4.10
2022-12-17T16:00:40.648Z,-4.20
2022-12-17T16:03:10.696Z,-4.30
2022-12-17T16:05:39.182Z,-4.30
2022-12-17T16:08:08.026Z,-4.40
2022-12-17T16:10:36.555Z,-4.50
2022-12-17T16:13:08.054Z,-4.50
2022-12-17T16:15:36.440Z,-4.60
2022-12-17T16:18:06.271Z,-4.70
2022-12-17T16:20:36.178Z,-4.80
2022-12-17T16:23:04.638Z,-4.90
2022-12-17T16:25:32.911Z,-5.00
2022-12-17T16:28:01.022Z,-5.10
2022-12-17T16:30:29.524Z,-5.10
2022-12-17T16:32:59.854Z,-5.20
2022-12-17T16:35:29.570Z,-5.30
2022-12-17T16:37:59.105Z,-5.30
2022-12-17T16:40:28.257Z,-5.40
2022-12-17T16:42:57.540Z,-5.50
2022-12-17T16:45:25.710Z,-5.50
2022-12-17T16:47:53.855Z,-5.60
2022-12-17T16:50:21.891Z,-5.70
2022-12-17T16:52:50.221Z,-5.80
2022-12-17T16:55:19.792Z,-5.80
2022-12-17T16:57:48.234Z,-5.90
2022-12-17T17:00:16.862Z,-6.00
2022-12-17T17:02:49.883Z,-6.00
2022-12-17T17:05:20.996Z,-6.10
2022-12-17T17:07:49.079Z,-6.10
2022-12-17T17:10:17.276Z,-6.20
2022-12-17T17:12:46.813Z,-6.30
2022-12-17T17:15:14.987Z,-6.30
2022-12-17T17:17:55.628Z,-6.40
2022-12-17T17:20:26.147Z,-6.40
2022-12-17T17:22:55.046Z,-6.50
2022-12-17T17:25:23.392Z,-6.50
2022-12-17T17:27:52.969Z,-6.60
2022-12-17T17:30:21.508Z,-6.60
2022-12-17T17:32:50.195Z,-6.70
2022-12-17T17:35:18.574Z,-6.70
2022-12-17T17:37:46.622Z,-6.80
2022-12-17T17:40:15.185Z,-6.90
2022-12-17T17:42:46.168Z,-6.90
2022-12-17T17:45:19.643Z,-7.00
2022-12-17T17:47:47.814Z,-7.00
2022-12-17T17:50:16.063Z,-7.00
2022-12-17T17:52:44.139Z,-7.10
2022-12-17T17:55:12.333Z,-7.20
2022-12-17T17:57:40.446Z,-7.20
2022-12-17T18:00:09.746Z,-7.30
2022-12-17T18:02:39.371Z,-7.30
2022-12-17T18:05:08.045Z,-7.30
2022-12-17T18:07:36.179Z,-7.40
2022-12-17T18:10:05.126Z,-7.40
2022-12-17T18:12:50.914Z,-7.40
2022-12-17T18:15:19.176Z,-7.50
2022-12-17T18:17:52.381Z,-7.60
2022-12-17T18:20:20.824Z,-7.60
2022-12-17T18:22:50.482Z,-7.70
2022-12-17T18:25:18.887Z,-7.80
2022-12-17T18:27:47.285Z,-7.80
2022-12-17T18:30:17.066Z,-7.80
2022-12-17T18:32:45.774Z,-7.80
2022-12-17T18:35:15.656Z,-7.90
2022-12-17T18:37:43.920Z,-7.90
2022-12-17T18:40:13.022Z,-8.00
2022-12-17T18:42:58.955Z,-8.00
2022-12-17T18:45:27.256Z,-8.00
2022-12-17T18:47:55.631Z,-8.10
2022-12-17T18:50:25.460Z,-8.10
2022-12-17T18:52:53.595Z,-8.20
2022-12-17T18:55:21.895Z,-8.20
2022-12-17T18:57:50.025Z,-8.30
2022-12-17T19:00:18.616Z,-8.30
2022-12-17T19:02:46.973Z,-8.30
2022-12-17T19:05:15.530Z,-8.30
2022-12-17T19:07:48.059Z,-8.40
2022-12-17T19:10:16.514Z,-8.40
2022-12-17T19:12:44.907Z,-8.40
2022-12-17T19:15:13.118Z,-8.50
2022-12-17T19:17:41.354Z,-8.50
2022-12-17T19:20:11.118Z,-8.50
2022-12-17T19:22:39.517Z,-8.60
2022-12-17T19:25:10.202Z,-8.70
2022-12-17T19:27:38.608Z,-8.70
2022-12-17T19:30:08.514Z,-8.70
2022-12-17T19:32:37.091Z,-8.70
2022-12-17T19:35:06.953Z,-8.70
2022-12-17T19:37:35.237Z,-8.80
2022-12-17T19:40:03.641Z,-8.80
2022-12-17T19:42:37.420Z,-8.80
2022-12-17T19:45:07.070Z,-8.80
2022-12-17T19:47:35.254Z,-8.80
2022-12-17T19:50:04.009Z,-8.80
2022-12-17T19:52:32.181Z,-8.80
2022-12-17T19:55:00.493Z,-8.80
2022-12-17T19:57:29.212Z,-8.90
2022-12-17T19:59:59.025Z,-8.90
2022-12-17T20:02:32.513Z,-8.90
2022-12-17T20:05:02.005Z,-9.00
2022-12-17T20:07:30.874Z,-9.00
2022-12-17T20:09:59.187Z,-9.00
2022-12-17T20:12:27.453Z,-9.00
2022-12-17T20:14:55.922Z,-9.10
2022-12-17T20:17:27.203Z,-9.10
2022-12-17T20:19:57.848Z,-9.10
2022-12-17T20:22:26.338Z,-9.10
2022-12-17T20:24:54.521Z,-9.20
2022-12-17T20:27:22.918Z,-9.20
2022-12-17T20:29:52.481Z,-9.30
2022-12-17T20:32:21.440Z,-9.30
2022-12-17T20:34:51.714Z,-9.30
2022-12-17T20:37:19.987Z,-9.30
2022-12-17T20:39:48.336Z,-9.40
2022-12-17T20:42:17.905Z,-9.40
2022-12-17T20:44:51.543Z,-9.40
2022-12-17T20:47:21.432Z,-9.40
2022-12-17T20:49:51.295Z,-9.50
2022-12-17T20:52:19.467Z,-9.50
2022-12-17T20:54:47.728Z,-9.50
2022-12-17T20:57:16.294Z,-9.60
2022-12-17T20:59:44.808Z,-9.60
2022-12-17T21:02:13.422Z,-9.60
2022-12-17T21:04:41.865Z,-9.70
2022-12-17T21:07:11.549Z,-9.60
2022-12-17T21:09:39.916Z,-9.70
2022-12-17T21:12:09.641Z,-9.70
2022-12-17T21:14:37.999Z,-9.80
2022-12-17T21:17:06.502Z,-9.80
2022-12-17T21:19:34.871Z,-9.80
2022-12-17T21:22:03.274Z,-9.80
2022-12-17T21:24:33.130Z,-9.90
2022-12-17T21:27:02.517Z,-9.90
2022-12-17T21:29:30.738Z,-9.90
2022-12-17T21:31:59.148Z,-9.90
2022-12-17T21:34:29.526Z,-9.90
2022-12-17T21:36:57.831Z,-10.00
2022-12-17T21:39:26.088Z,-10.00
2022-12-17T21:42:13.101Z,-10.00
2022-12-17T21:44:41.356Z,-10.10
2022-12-17T21:47:09.756Z,-10.10
2022-12-17T21:49:38.452Z,-10.10
2022-12-17T21:52:06.759Z,-10.10
2022-12-17T21:54:37.821Z,-10.20
2022-12-17T21:57:08.619Z,-10.10
2022-12-17T21:59:36.978Z,-10.10
2022-12-17T22:02:05.337Z,-10.10
2022-12-17T22:04:34.197Z,-10.10
2022-12-17T22:07:14.952Z,-10.10
2022-12-17T22:10:08.917Z,-10.10
2022-12-17T22:12:57.993Z,-10.20
2022-12-17T22:15:28.425Z,-10.20
2022-12-17T22:18:00.328Z,-10.20
2022-12-17T22:20:29.440Z,-10.20
2022-12-17T22:22:57.887Z,-10.20
2022-12-17T22:25:26.477Z,-10.20
2022-12-17T22:27:56.931Z,-10.20
2022-12-17T22:30:43.279Z,-10.20
2022-12-17T22:33:38.318Z,-10.30
2022-12-17T22:37:29.601Z,-10.20
2022-12-17T22:41:12.061Z,-10.30
2022-12-17T22:44:36.667Z,-10.30
2022-12-17T22:44:55.962Z,-10.30
2022-12-17T22:47:27.362Z,-10.30
2022-12-17T22:49:55.670Z,-10.40
2022-12-17T22:52:24.793Z,-10.40
2022-12-17T22:54:54.583Z,-10.40
2022-12-17T22:57:36.459Z,-10.40
2022-12-17T23:00:12.971Z,-10.40
2022-12-17T23:02:41.362Z,-10.40
2022-12-17T23:05:10.323Z,-10.50
2022-12-17T23:07:38.433Z,-10.50
2022-12-17T23:10:07.160Z,-10.50
2022-12-17T23:12:54.885Z,-10.50
2022-12-17T23:15:27.442Z,-10.50
2022-12-17T23:17:57.378Z,-10.60
2022-12-17T23:20:26.430Z,-10.60
2022-12-17T23:22:54.561Z,-10.60
2022-12-17T23:25:23.503Z,-10.60
2022-12-17T23:27:51.675Z,-10.60
2022-12-17T23:30:20.153Z,-10.60
2022-12-17T23:32:50.047Z,-10.70
2022-12-17T23:35:18.355Z,-10.70
2022-12-17T23:37:46.404Z,-10.70
2022-12-17T23:40:15.138Z,-10.70
2022-12-17T23:42:43.361Z,-10.70
2022-12-17T23:45:12.140Z,-10.70
2022-12-17T23:47:41.169Z,-10.70
2022-12-17T23:50:12.256Z,-10.70
2022-12-17T23:52:40.487Z,-10.80
2022-12-17T23:55:09.227Z,-10.80
2022-12-17T23:57:37.414Z,-10.80
